AZU1383 SBJP-SBBR
Flight info
| Callsign | AZU1383 |
|---|---|
| Flight time | N/A |
| Altitude | 38000 |
| Route | KUKES UZ59 VADOP |
| Aircraft | A20N/M-SDE2E3FGHIRWXY/LB1 |
Departure
| Time | 2026-05-03 20:42 |
|---|---|
| Airport | Presidente Castro Pinto International Airport (SBJP) |
Arrival
| Time | N/A |
|---|---|
| Airport | Presidente Juscelino Kubitschek International Airport (SBBR) |
| Time | Latitude | Longitude | Altitude | Speed | Heading |
|---|---|---|---|---|---|
| 2026-05-03 20:15 | -7.14682 | -34.94842 | 221 ft | 0 kts | 88° |
| 2026-05-03 20:30 | -7.14682 | -34.94841 | 221 ft | 0 kts | 88° |
| 2026-05-03 20:30 | -7.14682 | -34.94848 | 222 ft | 1 kts | 88° |
| 2026-05-03 20:30 | -7.14682 | -34.94849 | 222 ft | 0 kts | 88° |
| 2026-05-03 20:31 | -7.14685 | -34.94847 | 222 ft | 2 kts | 117° |
| 2026-05-03 20:31 | -7.14732 | -34.94843 | 220 ft | 0 kts | 207° |
| 2026-05-03 20:34 | -7.14758 | -34.94876 | 221 ft | 13 kts | 247° |
| 2026-05-03 20:34 | -7.14730 | -34.94948 | 221 ft | 0 kts | 316° |
| 2026-05-03 20:35 | -7.14718 | -34.94968 | 221 ft | 10 kts | 291° |
| 2026-05-03 20:35 | -7.14752 | -34.95035 | 222 ft | 16 kts | 240° |
| 2026-05-03 20:36 | -7.14750 | -34.95167 | 222 ft | 26 kts | 317° |
| 2026-05-03 20:36 | -7.14594 | -34.95312 | 222 ft | 37 kts | 317° |
| 2026-05-03 20:36 | -7.14386 | -34.95508 | 222 ft | 45 kts | 308° |
| 2026-05-03 20:36 | -7.14209 | -34.95718 | 224 ft | 38 kts | 312° |
| 2026-05-03 20:37 | -7.14154 | -34.95774 | 224 ft | 8 kts | 330° |
| 2026-05-03 20:37 | -7.14059 | -34.95810 | 226 ft | 22 kts | 347° |
| 2026-05-03 20:37 | -7.14030 | -34.95816 | 226 ft | 0 kts | 347° |
| 2026-05-03 20:39 | -7.14024 | -34.95821 | 226 ft | 4 kts | 319° |
| 2026-05-03 20:40 | -7.14040 | -34.95865 | 226 ft | 8 kts | 199° |
| 2026-05-03 20:40 | -7.14077 | -34.95833 | 226 ft | 10 kts | 136° |
| 2026-05-03 20:40 | -7.14081 | -34.95831 | 226 ft | 0 kts | 152° |
| 2026-05-03 20:40 | -7.14079 | -34.95832 | 226 ft | 2 kts | 151° |
| 2026-05-03 20:41 | -7.14066 | -34.95844 | 226 ft | 0 kts | 131° |
| 2026-05-03 20:41 | -7.14088 | -34.95818 | 227 ft | 27 kts | 132° |
| 2026-05-03 20:41 | -7.14386 | -34.95513 | 222 ft | 95 kts | 136° |
| 2026-05-03 20:42 | -7.14958 | -34.94963 | 248 ft | 140 kts | 135° |
| 2026-05-03 20:42 | -7.15451 | -34.94460 | 558 ft | 137 kts | 129° |
| 2026-05-03 20:42 | -7.15832 | -34.94022 | 1008 ft | 128 kts | 133° |
| 2026-05-03 20:42 | -7.16250 | -34.93479 | 1353 ft | 137 kts | 130° |
| 2026-05-03 20:43 | -7.16757 | -34.92799 | 1282 ft | 180 kts | 126° |
| 2026-05-03 20:43 | -7.17466 | -34.91810 | 1365 ft | 197 kts | 134° |
| 2026-05-03 20:43 | -7.18207 | -34.90679 | 1929 ft | 191 kts | 116° |
| 2026-05-03 20:43 | -7.18838 | -34.89595 | 2057 ft | 209 kts | 114° |
| 2026-05-03 20:44 | -7.19634 | -34.88354 | 2614 ft | 208 kts | 123° |
| 2026-05-03 20:44 | -7.20626 | -34.87452 | 2868 ft | 224 kts | 149° |
| 2026-05-03 20:44 | -7.22151 | -34.86989 | 2853 ft | 247 kts | 173° |
| 2026-05-03 20:44 | -7.23716 | -34.87163 | 3544 ft | 232 kts | 202° |
| 2026-05-03 20:45 | -7.25045 | -34.87837 | 4919 ft | 203 kts | 201° |
| 2026-05-03 20:45 | -7.26465 | -34.88012 | 5643 ft | 209 kts | 169° |
| 2026-05-03 20:45 | -7.27798 | -34.87394 | 6228 ft | 218 kts | 138° |
| 2026-05-03 20:45 | -7.28777 | -34.86231 | 6977 ft | 215 kts | 133° |
| 2026-05-03 20:46 | -7.29900 | -34.85275 | 7711 ft | 215 kts | 150° |
| 2026-05-03 20:46 | -7.31228 | -34.84581 | 8415 ft | 215 kts | 153° |
| 2026-05-03 20:46 | -7.32572 | -34.83885 | 9047 ft | 218 kts | 153° |
| 2026-05-03 20:46 | -7.33864 | -34.83195 | 9605 ft | 221 kts | 152° |
| 2026-05-03 20:47 | -7.34972 | -34.82588 | 10106 ft | 223 kts | 152° |
| 2026-05-03 20:47 | -7.35917 | -34.82014 | 10498 ft | 226 kts | 146° |
| 2026-05-03 20:47 | -7.37085 | -34.81095 | 11040 ft | 227 kts | 138° |
| 2026-05-03 20:47 | -7.38152 | -34.80039 | 11548 ft | 230 kts | 139° |
| 2026-05-03 20:48 | -7.39466 | -34.79121 | 12031 ft | 232 kts | 149° |
| 2026-05-03 20:48 | -7.40860 | -34.78277 | 12595 ft | 232 kts | 149° |
| 2026-05-03 20:48 | -7.42199 | -34.77471 | 13078 ft | 234 kts | 149° |
| 2026-05-03 20:48 | -7.43573 | -34.76649 | 13352 ft | 227 kts | 150° |
| 2026-05-03 20:49 | -7.44965 | -34.75821 | 13171 ft | 238 kts | 150° |
| 2026-05-03 20:49 | -7.46358 | -34.74998 | 13173 ft | 242 kts | 150° |
| 2026-05-03 20:49 | -7.47784 | -34.74161 | 13368 ft | 241 kts | 150° |
| 2026-05-03 20:49 | -7.49230 | -34.73317 | 13653 ft | 240 kts | 150° |
| 2026-05-03 20:50 | -7.50673 | -34.72480 | 13987 ft | 241 kts | 150° |
| 2026-05-03 20:50 | -7.52120 | -34.71602 | 14378 ft | 242 kts | 148° |
| 2026-05-03 20:50 | -7.53526 | -34.70666 | 14786 ft | 242 kts | 146° |
| 2026-05-03 20:50 | -7.54901 | -34.69665 | 15162 ft | 244 kts | 143° |
| 2026-05-03 20:51 | -7.56238 | -34.68609 | 15511 ft | 245 kts | 142° |
| 2026-05-03 20:51 | -7.57629 | -34.67615 | 15840 ft | 247 kts | 148° |
| 2026-05-03 20:51 | -7.59132 | -34.66743 | 16173 ft | 249 kts | 153° |
| 2026-05-03 20:51 | -7.60709 | -34.66008 | 16512 ft | 249 kts | 158° |
| 2026-05-03 20:52 | -7.62328 | -34.65385 | 16835 ft | 251 kts | 162° |
| 2026-05-03 20:52 | -7.64008 | -34.64865 | 17152 ft | 252 kts | 165° |
| 2026-05-03 20:52 | -7.65717 | -34.64457 | 17446 ft | 253 kts | 169° |
| 2026-05-03 20:52 | -7.67436 | -34.64175 | 17726 ft | 255 kts | 175° |
| 2026-05-03 20:53 | -7.69205 | -34.64176 | 17961 ft | 257 kts | 187° |
| 2026-05-03 20:53 | -7.70945 | -34.64523 | 18233 ft | 258 kts | 198° |
| 2026-05-03 20:53 | -7.72599 | -34.65207 | 18506 ft | 258 kts | 209° |
| 2026-05-03 20:53 | -7.74097 | -34.66204 | 18767 ft | 259 kts | 220° |
| 2026-05-03 20:54 | -7.75374 | -34.67470 | 19013 ft | 260 kts | 231° |
| 2026-05-03 20:54 | -7.76870 | -34.70798 | 19389 ft | 265 kts | 260° |
| 2026-05-03 20:54 | -7.77150 | -34.72612 | 19723 ft | 262 kts | 259° |
| 2026-05-03 20:55 | -7.77626 | -34.74388 | 19958 ft | 263 kts | 247° |
| 2026-05-03 20:55 | -7.78447 | -34.75994 | 20135 ft | 265 kts | 242° |
| 2026-05-03 20:55 | -7.79134 | -34.77733 | 20325 ft | 267 kts | 256° |
| 2026-05-03 20:55 | -7.79617 | -34.79484 | 20580 ft | 266 kts | 248° |
| 2026-05-03 20:56 | -7.80555 | -34.81171 | 20653 ft | 271 kts | 238° |
| 2026-05-03 20:56 | -7.81476 | -34.82755 | 20957 ft | 267 kts | 242° |
| 2026-05-03 20:56 | -7.82315 | -34.84462 | 21231 ft | 266 kts | 246° |
| 2026-05-03 20:56 | -7.83029 | -34.86180 | 21405 ft | 268 kts | 249° |
| 2026-05-03 20:57 | -7.83646 | -34.87929 | 21563 ft | 270 kts | 249° |
| 2026-05-03 20:57 | -7.84488 | -34.89676 | 21680 ft | 273 kts | 238° |
| 2026-05-03 20:57 | -7.85379 | -34.91030 | 21848 ft | 273 kts | 238° |
| 2026-05-03 20:57 | -7.86272 | -34.92688 | 22044 ft | 272 kts | 244° |
| 2026-05-03 20:58 | -7.87075 | -34.94461 | 22250 ft | 272 kts | 247° |
| 2026-05-03 20:58 | -7.87768 | -34.96210 | 22411 ft | 273 kts | 249° |
| 2026-05-03 20:58 | -7.88500 | -34.97976 | 22529 ft | 275 kts | 244° |
| 2026-05-03 20:58 | -7.89392 | -34.99689 | 22690 ft | 276 kts | 242° |
| 2026-05-03 20:59 | -7.90323 | -35.01386 | 22863 ft | 276 kts | 240° |
| 2026-05-03 20:59 | -7.91285 | -35.03071 | 23011 ft | 276 kts | 239° |
| 2026-05-03 20:59 | -7.92263 | -35.04722 | 23147 ft | 277 kts | 239° |
| 2026-05-03 20:59 | -7.93139 | -35.06474 | 23246 ft | 279 kts | 245° |
| 2026-05-03 21:00 | -7.93980 | -35.08246 | 23419 ft | 278 kts | 243° |
| 2026-05-03 21:00 | -7.94272 | -35.08830 | 23472 ft | 278 kts | 243° |
| 2026-05-03 21:00 | -7.95807 | -35.11690 | 23679 ft | 280 kts | 240° |
| 2026-05-03 21:00 | -7.96771 | -35.13401 | 23792 ft | 280 kts | 241° |
| 2026-05-03 21:01 | -7.97701 | -35.15121 | 23919 ft | 281 kts | 242° |
| 2026-05-03 21:01 | -7.98610 | -35.16886 | 24038 ft | 281 kts | 243° |
| 2026-05-03 21:01 | -7.99474 | -35.18653 | 24152 ft | 282 kts | 244° |
| 2026-05-03 21:01 | -8.00309 | -35.20453 | 24259 ft | 283 kts | 246° |
| 2026-05-03 21:02 | -8.01105 | -35.22265 | 24364 ft | 283 kts | 247° |
| 2026-05-03 21:02 | -8.01870 | -35.24107 | 24465 ft | 284 kts | 248° |
| 2026-05-03 21:02 | -8.02596 | -35.25962 | 24561 ft | 284 kts | 249° |
| 2026-05-03 21:02 | -8.03314 | -35.27814 | 24657 ft | 285 kts | 247° |
| 2026-05-03 21:03 | -8.04136 | -35.29647 | 24741 ft | 286 kts | 244° |
| 2026-05-03 21:03 | -8.05042 | -35.31414 | 24821 ft | 287 kts | 241° |
| 2026-05-03 21:03 | -8.06051 | -35.33156 | 24915 ft | 287 kts | 238° |
| 2026-05-03 21:03 | -8.07128 | -35.34856 | 24996 ft | 287 kts | 239° |
| 2026-05-03 21:04 | -8.08095 | -35.36620 | 25069 ft | 288 kts | 244° |
| 2026-05-03 21:04 | -8.08630 | -35.37801 | 25113 ft | 288 kts | 248° |
| 2026-05-03 21:04 | -8.09643 | -35.40221 | 25108 ft | 293 kts | 236° |
| 2026-05-03 21:04 | -8.10374 | -35.41380 | 25035 ft | 296 kts | 244° |
| 2026-05-03 21:05 | -8.11105 | -35.43275 | 25107 ft | 294 kts | 256° |
| 2026-05-03 21:05 | -8.11951 | -35.45156 | 25028 ft | 298 kts | 237° |
| 2026-05-03 21:05 | -8.13103 | -35.46867 | 25241 ft | 292 kts | 237° |
| 2026-05-03 21:05 | -8.13915 | -35.48663 | 25197 ft | 296 kts | 259° |
| 2026-05-03 21:06 | -8.14498 | -35.50643 | 24976 ft | 303 kts | 246° |
| 2026-05-03 21:06 | -8.15405 | -35.52578 | 25295 ft | 293 kts | 243° |
| 2026-05-03 21:06 | -8.16342 | -35.54364 | 25568 ft | 286 kts | 241° |
| 2026-05-03 21:06 | -8.17339 | -35.56080 | 25627 ft | 287 kts | 238° |
| 2026-05-03 21:07 | -8.18433 | -35.57784 | 25606 ft | 291 kts | 236° |
| 2026-05-03 21:07 | -8.19612 | -35.59450 | 25629 ft | 292 kts | 233° |
| 2026-05-03 21:07 | -8.20789 | -35.61035 | 25722 ft | 292 kts | 234° |
| 2026-05-03 21:07 | -8.21703 | -35.62530 | 25727 ft | 294 kts | 244° |
| 2026-05-03 21:08 | -8.22548 | -35.64446 | 25778 ft | 294 kts | 245° |
| 2026-05-03 21:08 | -8.23513 | -35.66238 | 25845 ft | 293 kts | 240° |
| 2026-05-03 21:08 | -8.24479 | -35.68081 | 25924 ft | 293 kts | 246° |
| 2026-05-03 21:08 | -8.25306 | -35.69957 | 25972 ft | 293 kts | 243° |
| 2026-05-03 21:09 | -8.26357 | -35.71729 | 25959 ft | 295 kts | 234° |
| 2026-05-03 21:09 | -8.27434 | -35.73482 | 25931 ft | 298 kts | 248° |
| 2026-05-03 21:09 | -8.28225 | -35.75433 | 25950 ft | 298 kts | 245° |
| 2026-05-03 21:09 | -8.29090 | -35.77279 | 26109 ft | 294 kts | 246° |
| 2026-05-03 21:10 | -8.29840 | -35.79170 | 26191 ft | 294 kts | 251° |
| 2026-05-03 21:10 | -8.30475 | -35.81154 | 26206 ft | 295 kts | 248° |
| 2026-05-03 21:10 | -8.31397 | -35.83018 | 26159 ft | 298 kts | 242° |
| 2026-05-03 21:10 | -8.32204 | -35.84949 | 26177 ft | 298 kts | 252° |
| 2026-05-03 21:11 | -8.32986 | -35.86862 | 26260 ft | 297 kts | 242° |
| 2026-05-03 21:11 | -8.34027 | -35.88629 | 26344 ft | 295 kts | 235° |
| 2026-05-03 21:11 | -8.35076 | -35.90451 | 26309 ft | 298 kts | 248° |
| 2026-05-03 21:11 | -8.35921 | -35.92324 | 26362 ft | 297 kts | 243° |
| 2026-05-03 21:12 | -8.36921 | -35.94150 | 26442 ft | 296 kts | 238° |
| 2026-05-03 21:12 | -8.37972 | -35.95964 | 26486 ft | 296 kts | 245° |
| 2026-05-03 21:12 | -8.38683 | -35.97890 | 26443 ft | 298 kts | 251° |
| 2026-05-03 21:12 | -8.39376 | -35.99859 | 26543 ft | 296 kts | 249° |
| 2026-05-03 21:13 | -8.40166 | -36.01773 | 26602 ft | 295 kts | 246° |
| 2026-05-03 21:13 | -8.41037 | -36.03650 | 26630 ft | 296 kts | 244° |
| 2026-05-03 21:13 | -8.41972 | -36.05490 | 26666 ft | 296 kts | 242° |
| 2026-05-03 21:13 | -8.42980 | -36.07308 | 26698 ft | 296 kts | 239° |
| 2026-05-03 21:14 | -8.44061 | -36.09103 | 26725 ft | 297 kts | 238° |
| 2026-05-03 21:14 | -8.45187 | -36.10840 | 26771 ft | 296 kts | 237° |
| 2026-05-03 21:14 | -8.46250 | -36.12586 | 26797 ft | 297 kts | 240° |
| 2026-05-03 21:14 | -8.47243 | -36.14455 | 26825 ft | 297 kts | 244° |
| 2026-05-03 21:15 | -8.48114 | -36.16354 | 26869 ft | 297 kts | 247° |
| 2026-05-03 21:15 | -8.48869 | -36.18289 | 26889 ft | 297 kts | 251° |
| 2026-05-03 21:15 | -8.49516 | -36.20260 | 26918 ft | 297 kts | 253° |
| 2026-05-03 21:15 | -8.50077 | -36.22258 | 26946 ft | 297 kts | 256° |
| 2026-05-03 21:16 | -8.50559 | -36.24301 | 26975 ft | 297 kts | 258° |
| 2026-05-03 21:16 | -8.51158 | -36.26292 | 26756 ft | 305 kts | 238° |
| 2026-05-03 21:16 | -8.52505 | -36.27989 | 26529 ft | 311 kts | 227° |
| 2026-05-03 21:16 | -8.53865 | -36.29641 | 26723 ft | 305 kts | 239° |
| 2026-05-03 21:17 | -8.54725 | -36.31597 | 26729 ft | 304 kts | 245° |
| 2026-05-03 21:17 | -8.55471 | -36.32830 | 26636 ft | 307 kts | 227° |
| 2026-05-03 21:17 | -8.57545 | -36.34806 | 26347 ft | 314 kts | 237° |
| 2026-05-03 21:17 | -8.58419 | -36.36829 | 26287 ft | 313 kts | 252° |
| 2026-05-03 21:18 | -8.59224 | -36.38824 | 26625 ft | 302 kts | 242° |
| 2026-05-03 21:18 | -8.60285 | -36.40565 | 26892 ft | 294 kts | 233° |
| 2026-05-03 21:18 | -8.60439 | -36.40781 | 26907 ft | 293 kts | 235° |
| 2026-05-03 21:19 | -8.60852 | -36.41398 | 26939 ft | 293 kts | 241° |
| 2026-05-03 21:19 | -8.61560 | -36.43386 | 26608 ft | 304 kts | 261° |
| 2026-05-03 21:19 | -8.62062 | -36.45463 | 26399 ft | 312 kts | 250° |
| 2026-05-03 21:19 | -8.62781 | -36.47592 | 25888 ft | 329 kts | 244° |
| 2026-05-03 21:20 | -8.64116 | -36.49474 | 25819 ft | 331 kts | 221° |
| 2026-05-03 21:20 | -8.66072 | -36.50696 | 25771 ft | 332 kts | 199° |
| 2026-05-03 21:20 | -8.68336 | -36.51067 | 25747 ft | 332 kts | 176° |
| 2026-05-03 21:20 | -8.70582 | -36.50532 | 25724 ft | 333 kts | 154° |
| 2026-05-03 21:21 | -8.72455 | -36.49177 | 25709 ft | 333 kts | 135° |
| 2026-05-03 21:21 | -8.74107 | -36.47531 | 25731 ft | 334 kts | 135° |
| 2026-05-03 21:21 | -8.75772 | -36.45879 | 25761 ft | 334 kts | 135° |
| 2026-05-03 21:21 | -8.77428 | -36.44236 | 25793 ft | 334 kts | 135° |
| 2026-05-03 21:22 | -8.79085 | -36.42591 | 25836 ft | 334 kts | 135° |
| 2026-05-03 21:22 | -8.80742 | -36.40946 | 25852 ft | 334 kts | 135° |
| 2026-05-03 21:22 | -8.82374 | -36.39327 | 25878 ft | 334 kts | 135° |
| 2026-05-03 21:22 | -8.84053 | -36.37660 | 25918 ft | 334 kts | 135° |
| 2026-05-03 21:23 | -8.85609 | -36.36116 | 25939 ft | 333 kts | 135° |
| 2026-05-03 21:23 | -8.87588 | -36.34901 | 24997 ft | 345 kts | 174° |
| 2026-05-03 21:23 | -8.89855 | -36.35742 | 23363 ft | 382 kts | 227° |
| 2026-05-03 21:23 | -8.91116 | -36.37829 | 24821 ft | 326 kts | 253° |
| 2026-05-03 21:24 | -8.91338 | -36.39983 | 25746 ft | 299 kts | 279° |
| 2026-05-03 21:24 | -8.90591 | -36.41916 | 25781 ft | 300 kts | 307° |
| 2026-05-03 21:24 | -8.89045 | -36.43350 | 25617 ft | 306 kts | 332° |
| 2026-05-03 21:24 | -8.87021 | -36.43983 | 25549 ft | 309 kts | 357° |
| 2026-05-03 21:25 | -8.84900 | -36.43681 | 25565 ft | 309 kts | 22° |
| 2026-05-03 21:25 | -8.82904 | -36.42892 | 25479 ft | 311 kts | 4° |
| 2026-05-03 21:25 | -8.80825 | -36.43398 | 24806 ft | 328 kts | 323° |
| 2026-05-03 21:25 | -8.79356 | -36.45141 | 24823 ft | 324 kts | 290° |
| 2026-05-03 21:26 | -8.79041 | -36.47320 | 25088 ft | 313 kts | 270° |
| 2026-05-03 21:26 | -8.78924 | -36.49421 | 25745 ft | 292 kts | 278° |
| 2026-05-03 21:26 | -8.78477 | -36.51422 | 26035 ft | 285 kts | 287° |
| 2026-05-03 21:26 | -8.78091 | -36.53401 | 25959 ft | 291 kts | 272° |
| 2026-05-03 21:27 | -8.78178 | -36.55464 | 25861 ft | 296 kts | 261° |
| 2026-05-03 21:27 | -8.78490 | -36.57482 | 25934 ft | 296 kts | 267° |
| 2026-05-03 21:27 | -8.78444 | -36.59559 | 26023 ft | 294 kts | 273° |
| 2026-05-03 21:27 | -8.78352 | -36.61607 | 26176 ft | 291 kts | 271° |
| 2026-05-03 21:28 | -8.78341 | -36.63664 | 26236 ft | 292 kts | 266° |
| 2026-05-03 21:28 | -8.78629 | -36.65727 | 26194 ft | 296 kts | 255° |
| 2026-05-03 21:28 | -8.79282 | -36.67699 | 26214 ft | 297 kts | 245° |
| 2026-05-03 21:28 | -8.80128 | -36.69602 | 26117 ft | 301 kts | 258° |
| 2026-05-03 21:29 | -8.80389 | -36.71734 | 25945 ft | 306 kts | 262° |
| 2026-05-03 21:29 | -8.80791 | -36.73781 | 26243 ft | 297 kts | 254° |
| 2026-05-03 21:29 | -8.81441 | -36.75742 | 26460 ft | 291 kts | 248° |
| 2026-05-03 21:29 | -8.82196 | -36.77666 | 26527 ft | 292 kts | 251° |
| 2026-05-03 21:30 | -8.82793 | -36.79632 | 26530 ft | 294 kts | 256° |
| 2026-05-03 21:30 | -8.83036 | -36.80680 | 26549 ft | 294 kts | 258° |